Time;durP1;ratioP1;P1;durP2;ratioP2;P2;SDS_P1;SDS_P2;PMS_P1;PMS_P2;Temp;Humidity;BMP_temperature;BMP_pressure;BME280_temperature;BME280_humidity;BME280_pressure;Samples;Min_cycle;Max_cycle;Signal;HPM_P1;HPM_P2
2021/08/27 00:02:20;;;;;;;3.23;2.43;;;13.80;1.00;;;;;;6163662;23;20388;-83
2021/08/27 00:04:48;;;;;;;3.30;2.50;;;13.90;1.00;;;;;;6154877;23;20364;-81
2021/08/27 00:07:16;;;;;;;4.20;2.37;;;13.90;1.00;;;;;;6150913;23;20368;-81
2021/08/27 00:09:44;;;;;;;4.53;2.73;;;13.90;1.00;;;;;;6154786;23;20376;-81
2021/08/27 00:12:12;;;;;;;3.40;3.10;;;13.90;1.00;;;;;;6152784;23;20486;-82
2021/08/27 00:14:39;;;;;;;3.60;2.80;;;13.90;1.00;;;;;;6154665;23;20390;-81
2021/08/27 00:17:06;;;;;;;3.70;3.30;;;13.80;1.00;;;;;;6149641;23;20426;-81
2021/08/27 00:19:34;;;;;;;4.20;3.00;;;13.80;1.00;;;;;;6154155;23;20398;-81
2021/08/27 00:22:01;;;;;;;3.60;2.80;;;13.80;1.00;;;;;;6152030;23;20412;-82
2021/08/27 00:24:28;;;;;;;4.20;3.13;;;13.80;1.00;;;;;;6153555;23;20376;-83
2021/08/27 00:26:56;;;;;;;3.20;2.83;;;13.80;1.00;;;;;;6151407;23;20471;-82
2021/08/27 00:29:23;;;;;;;3.90;3.00;;;13.70;1.00;;;;;;6152740;23;20395;-83
2021/08/27 00:31:51;;;;;;;5.97;3.00;;;13.70;1.00;;;;;;6152885;23;20379;-81
2021/08/27 00:34:18;;;;;;;3.30;2.77;;;13.70;1.00;;;;;;6151503;23;20762;-82
2021/08/27 00:36:45;;;;;;;4.70;3.20;;;13.70;1.00;;;;;;6150795;23;20416;-82
2021/08/27 00:39:13;;;;;;;3.30;3.00;;;13.70;1.00;;;;;;6152711;23;20407;-83
2021/08/27 00:41:40;;;;;;;3.23;2.87;;;13.60;1.00;;;;;;6150292;23;20548;-82
2021/08/27 00:44:08;;;;;;;5.07;3.00;;;13.60;1.00;;;;;;6150767;23;20384;-83
2021/08/27 00:46:35;;;;;;;4.00;3.37;;;13.60;1.00;;;;;;6149714;23;20421;-81
2021/08/27 00:49:02;;;;;;;3.47;2.90;;;13.60;1.00;;;;;;6150117;23;20374;-83
2021/08/27 00:51:30;;;;;;;6.73;3.50;;;13.60;1.00;;;;;;6149589;23;20400;-84
2021/08/27 00:53:57;;;;;;;3.67;3.20;;;13.50;1.00;;;;;;6146413;23;20407;-82
2021/08/27 00:56:24;;;;;;;3.90;2.73;;;13.50;1.00;;;;;;6141831;23;20447;-83
2021/08/27 00:58:51;;;;;;;3.93;3.00;;;13.50;1.00;;;;;;6141249;23;20399;-82
2021/08/27 01:01:19;;;;;;;2.80;2.53;;;13.40;1.00;;;;;;6141167;23;20503;-82
2021/08/27 01:03:46;;;;;;;3.80;3.50;;;13.40;1.00;;;;;;6137525;23;20394;-81
2021/08/27 01:06:20;;;;;;;4.70;3.00;;;13.40;1.00;;;;;;6159628;23;20415;-81
2021/08/27 01:08:55;;;;;;;3.50;3.13;;;13.40;1.00;;;;;;6130552;23;21627;-83
2021/08/27 01:11:31;;;;;;;3.60;3.10;;;13.40;1.00;;;;;;6158184;23;20414;-81
2021/08/27 01:14:03;;;;;;;3.87;3.37;;;13.40;1.00;;;;;;6155198;23;20429;-81
2021/08/27 01:16:36;;;;;;;6.13;3.87;;;13.40;1.00;;;;;;6126890;23;20439;-83
2021/08/27 01:19:32;;;;;;;3.70;3.40;;;13.40;1.00;;;;;;6132068;23;20395;-81
2021/08/27 01:22:20;;;;;;;5.33;3.20;;;13.40;1.00;;;;;;6175566;23;20666;-82
2021/08/27 01:24:48;;;;;;;5.50;3.30;;;13.40;1.00;;;;;;6133495;23;20511;-82
2021/08/27 01:27:18;;;;;;;5.83;3.40;;;13.40;1.00;;;;;;6157094;23;21091;-82
2021/08/27 01:29:54;;;;;;;3.47;3.17;;;13.40;1.00;;;;;;6157417;23;20415;-83
2021/08/27 01:32:34;;;;;;;4.53;3.30;;;13.40;1.00;;;;;;6131347;23;20510;-83
2021/08/27 01:35:03;;;;;;;3.53;3.10;;;13.40;1.00;;;;;;6137801;23;20650;-82
2021/08/27 01:37:34;;;;;;;5.90;2.87;;;13.40;1.00;;;;;;6155094;23;20969;-84
2021/08/27 01:40:02;;;;;;;4.83;3.50;;;13.50;1.00;;;;;;6137168;23;20486;-82
2021/08/27 01:42:30;;;;;;;3.50;2.90;;;13.40;1.00;;;;;;6162373;23;20423;-82
2021/08/27 01:45:00;;;;;;;4.47;3.90;;;13.40;1.00;;;;;;6174408;23;20395;-84
2021/08/27 01:47:31;;;;;;;3.40;2.63;;;13.40;1.00;;;;;;6173508;23;20396;-82
2021/08/27 01:49:59;;;;;;;3.90;3.40;;;13.50;1.00;;;;;;6156139;23;20452;-83
2021/08/27 01:52:28;;;;;;;3.93;3.63;;;13.50;1.00;;;;;;6153503;23;20504;-84
2021/08/27 01:54:56;;;;;;;3.63;3.07;;;13.50;1.00;;;;;;6153698;23;20724;-84
2021/08/27 01:57:25;;;;;;;3.80;3.20;;;13.50;1.00;;;;;;6127550;23;20476;-81
2021/08/27 01:59:52;;;;;;;4.00;3.10;;;13.50;1.00;;;;;;6155863;23;20407;-82
2021/08/27 02:02:20;;;;;;;4.43;4.03;;;13.50;1.00;;;;;;6153441;23;20371;-82
2021/08/27 02:04:51;;;;;;;4.17;3.23;;;13.50;1.00;;;;;;6150494;23;20507;-83
2021/08/27 02:07:18;;;;;;;4.27;3.70;;;13.50;1.00;;;;;;6149009;23;20366;-80
2021/08/27 02:09:49;;;;;;;4.87;3.73;;;13.50;1.00;;;;;;6121206;23;20415;-82
2021/08/27 02:12:16;;;;;;;6.03;3.60;;;13.50;1.00;;;;;;6149285;23;20395;-81
2021/08/27 02:14:43;;;;;;;4.90;3.40;;;13.50;1.00;;;;;;6149206;23;20458;-83
2021/08/27 02:17:11;;;;;;;4.07;3.67;;;13.50;1.00;;;;;;6149837;23;20414;-84
2021/08/27 02:19:38;;;;;;;4.60;3.50;;;13.50;1.00;;;;;;6124637;23;21432;-81
2021/08/27 02:22:08;;;;;;;6.57;5.30;;;13.40;1.00;;;;;;6147474;23;20661;-81
2021/08/27 02:24:40;;;;;;;3.97;3.03;;;13.50;1.00;;;;;;6150818;23;20398;-83
2021/08/27 02:27:10;;;;;;;5.50;3.60;;;13.50;1.00;;;;;;6148027;23;20403;-81
2021/08/27 02:29:39;;;;;;;3.47;3.17;;;13.50;1.00;;;;;;6152904;23;20382;-82
2021/08/27 02:32:10;;;;;;;5.40;3.40;;;13.50;1.00;;;;;;6128435;23;20464;-82
2021/08/27 02:34:42;;;;;;;4.77;4.30;;;13.50;1.00;;;;;;6127596;23;20417;-82
2021/08/27 02:37:12;;;;;;;4.27;3.80;;;13.50;1.00;;;;;;6154195;23;20414;-82
2021/08/27 02:39:39;;;;;;;3.93;3.53;;;13.50;1.00;;;;;;6130196;23;20427;-83
2021/08/27 02:42:10;;;;;;;8.63;4.27;;;13.50;1.00;;;;;;6147174;23;20510;-82
2021/08/27 02:44:37;;;;;;;3.93;3.53;;;13.50;1.00;;;;;;6154049;23;20364;-81
2021/08/27 02:47:04;;;;;;;4.97;4.00;;;13.50;1.00;;;;;;6149232;23;20374;-82
2021/08/27 02:49:31;;;;;;;4.20;3.50;;;13.50;1.00;;;;;;6166265;23;20368;-81
2021/08/27 02:52:07;;;;;;;3.70;2.70;;;13.60;1.00;;;;;;6159264;23;20797;-81
2021/08/27 02:54:40;;;;;;;5.70;3.20;;;13.50;1.00;;;;;;6152051;23;20430;-82
2021/08/27 02:57:07;;;;;;;4.20;3.50;;;13.60;1.00;;;;;;6143649;23;20447;-81
2021/08/27 02:59:37;;;;;;;3.33;2.90;;;13.60;1.00;;;;;;6146914;23;20402;-81
2021/08/27 03:02:07;;;;;;;3.30;3.00;;;13.60;1.00;;;;;;6146084;23;21274;-81
2021/08/27 03:04:43;;;;;;;3.13;2.83;;;13.70;1.00;;;;;;6144875;23;20411;-83
2021/08/27 03:07:14;;;;;;;3.67;2.90;;;13.70;1.00;;;;;;6148938;23;20403;-81
2021/08/27 03:09:58;;;;;;;3.83;3.00;;;13.80;1.00;;;;;;6153312;23;20989;-81
2021/08/27 03:12:34;;;;;;;2.70;2.43;;;13.80;1.00;;;;;;6151943;23;20499;-81
2021/08/27 03:15:06;;;;;;;4.90;2.40;;;13.80;1.00;;;;;;6146674;23;20411;-80
2021/08/27 03:17:38;;;;;;;5.50;2.10;;;13.80;1.00;;;;;;6152473;23;20414;-80
2021/08/27 03:20:10;;;;;;;4.00;3.20;;;13.80;1.00;;;;;;6158881;23;20494;-81
2021/08/27 03:22:45;;;;;;;2.67;2.47;;;13.80;1.00;;;;;;6156750;23;20391;-81
2021/08/27 03:25:14;;;;;;;3.70;2.27;;;13.80;1.00;;;;;;6160241;23;20386;-80
2021/08/27 03:27:45;;;;;;;2.33;2.03;;;13.90;1.00;;;;;;6157345;23;21290;-79
2021/08/27 03:30:17;;;;;;;2.40;2.10;;;13.90;1.00;;;;;;6154657;23;20395;-79
2021/08/27 03:32:47;;;;;;;2.80;2.10;;;13.90;1.00;;;;;;6153738;23;20506;-82
2021/08/27 03:35:15;;;;;;;2.67;2.03;;;13.90;1.00;;;;;;6150069;23;20487;-81
2021/08/27 03:37:42;;;;;;;2.40;1.97;;;14.00;1.00;;;;;;6124591;23;21289;-82
2021/08/27 03:40:12;;;;;;;3.80;2.70;;;14.00;1.00;;;;;;6151637;23;20392;-81
2021/08/27 03:42:40;;;;;;;2.67;2.30;;;14.00;1.00;;;;;;6147435;23;20967;-82
2021/08/27 03:45:09;;;;;;;3.70;3.40;;;14.00;1.00;;;;;;6145558;23;20943;-80
2021/08/27 03:47:38;;;;;;;4.33;3.00;;;14.00;1.00;;;;;;6148711;23;20416;-80
2021/08/27 03:50:07;;;;;;;3.00;2.70;;;14.00;1.00;;;;;;6167950;23;20442;-80
2021/08/27 03:52:35;;;;;;;3.80;2.93;;;14.00;1.00;;;;;;6174856;23;20804;-80
2021/08/27 03:55:03;;;;;;;2.77;2.03;;;14.00;1.00;;;;;;6134129;23;20479;-81
2021/08/27 03:57:32;;;;;;;2.83;1.97;;;13.90;1.00;;;;;;6147647;23;21303;-80
2021/08/27 04:00:00;;;;;;;3.40;2.30;;;13.90;1.00;;;;;;6153810;23;21162;-79
2021/08/27 04:02:27;;;;;;;3.07;2.77;;;13.90;1.00;;;;;;6152205;23;20915;-81
2021/08/27 04:05:10;;;;;;;4.33;3.63;;;13.90;1.00;;;;;;6148171;23;20390;-80
2021/08/27 04:07:36;;;;;;;4.50;2.37;;;13.90;1.00;;;;;;6124912;23;20530;-81
2021/08/27 04:10:04;;;;;;;3.57;3.10;;;13.90;1.00;;;;;;6171270;23;20402;-81
2021/08/27 04:12:31;;;;;;;2.70;2.50;;;14.00;1.00;;;;;;6172385;23;20364;-82
2021/08/27 04:14:57;;;;;;;2.87;2.03;;;14.00;1.00;;;;;;6148332;23;20415;-80
2021/08/27 04:17:24;;;;;;;2.87;2.40;;;14.00;1.00;;;;;;6149435;23;20375;-79
2021/08/27 04:19:51;;;;;;;2.53;2.07;;;14.10;1.00;;;;;;6122888;23;21172;-80
2021/08/27 04:22:19;;;;;;;3.03;2.03;;;14.10;1.00;;;;;;6147479;23;20507;-81
2021/08/27 04:24:46;;;;;;;2.60;2.30;;;14.10;1.00;;;;;;6146299;23;20640;-80
2021/08/27 04:27:12;;;;;;;5.70;5.23;;;14.20;1.00;;;;;;6149489;23;20418;-79
2021/08/27 04:29:39;;;;;;;3.70;2.67;;;14.30;1.00;;;;;;6146494;23;20444;-82
2021/08/27 04:32:07;;;;;;;3.00;2.40;;;14.30;1.00;;;;;;6147048;23;20690;-84
2021/08/27 04:34:34;;;;;;;7.33;3.83;;;14.40;1.00;;;;;;6123316;23;21233;-84
2021/08/27 04:37:01;;;;;;;4.50;2.70;;;14.40;1.00;;;;;;6148501;23;21780;-83
2021/08/27 04:39:29;;;;;;;3.43;3.13;;;14.40;1.00;;;;;;6147738;23;20407;-84
2021/08/27 04:41:56;;;;;;;3.20;2.50;;;14.40;1.00;;;;;;6150000;23;20356;-86
2021/08/27 04:44:30;;;;;;;4.40;2.67;;;14.50;1.00;;;;;;6124224;23;20415;-81
2021/08/27 04:46:57;;;;;;;2.97;2.67;;;14.60;1.00;;;;;;6131719;23;20412;-83
2021/08/27 04:49:25;;;;;;;2.60;2.40;;;14.60;1.00;;;;;;6145066;23;20376;-81
2021/08/27 04:51:55;;;;;;;3.57;2.60;;;14.60;1.00;;;;;;6173274;23;20372;-83
2021/08/27 04:54:24;;;;;;;4.80;3.13;;;14.70;1.00;;;;;;6167856;23;20403;-85
2021/08/27 04:56:52;;;;;;;4.10;2.90;;;14.70;1.00;;;;;;6160014;23;21178;-80
2021/08/27 04:59:19;;;;;;;3.53;3.10;;;14.70;1.00;;;;;;6151990;23;20386;-79
2021/08/27 05:01:46;;;;;;;3.83;3.50;;;14.70;1.00;;;;;;6150493;23;20403;-80
2021/08/27 05:04:12;;;;;;;3.63;2.90;;;14.70;1.00;;;;;;6122516;23;20424;-80
2021/08/27 05:06:39;;;;;;;4.00;3.00;;;14.70;1.00;;;;;;6149900;23;20438;-81
2021/08/27 05:09:06;;;;;;;3.80;3.50;;;14.70;1.00;;;;;;6148522;23;20420;-80
2021/08/27 05:11:33;;;;;;;4.80;2.67;;;14.70;1.00;;;;;;6139501;23;20417;-80
2021/08/27 05:14:02;;;;;;;3.10;2.60;;;14.60;1.00;;;;;;6169100;23;20497;-81
2021/08/27 05:16:29;;;;;;;3.20;2.40;;;14.60;1.00;;;;;;6128125;23;20403;-80
2021/08/27 05:18:56;;;;;;;3.00;2.70;;;14.50;1.00;;;;;;6159557;23;20427;-79
2021/08/27 05:21:22;;;;;;;10.57;8.27;;;14.50;1.00;;;;;;6149922;23;20394;-80
2021/08/27 05:23:50;;;;;;;3.53;3.23;;;14.40;1.00;;;;;;6151111;23;20459;-79
2021/08/27 05:26:17;;;;;;;2.93;2.40;;;14.40;1.00;;;;;;6151391;23;20387;-80
2021/08/27 05:28:44;;;;;;;6.10;3.20;;;14.40;1.00;;;;;;6149876;23;20430;-81
2021/08/27 05:31:13;;;;;;;4.13;2.60;;;14.40;1.00;;;;;;6154119;23;20411;-82
2021/08/27 05:33:40;;;;;;;4.67;3.67;;;14.40;1.00;;;;;;6123291;23;20419;-79
2021/08/27 05:36:08;;;;;;;3.90;3.23;;;14.40;1.00;;;;;;6152425;23;20412;-80
2021/08/27 05:38:34;;;;;;;4.80;3.67;;;14.50;1.00;;;;;;6154988;23;21156;-79
2021/08/27 05:41:02;;;;;;;3.20;2.70;;;14.50;1.00;;;;;;6157582;23;20450;-78
2021/08/27 05:43:29;;;;;;;4.67;3.80;;;14.40;1.00;;;;;;6155240;23;20416;-79
2021/08/27 05:45:55;;;;;;;5.07;2.90;;;14.40;1.00;;;;;;6152212;23;20399;-79
2021/08/27 05:48:24;;;;;;;6.37;3.20;;;14.30;1.00;;;;;;6158159;23;20433;-80
2021/08/27 05:50:51;;;;;;;4.73;4.27;;;14.30;1.00;;;;;;6153906;23;20977;-82
2021/08/27 05:53:17;;;;;;;3.70;2.60;;;14.30;1.00;;;;;;6153989;23;20963;-80
2021/08/27 05:55:44;;;;;;;4.87;3.83;;;14.30;1.00;;;;;;6151843;23;21587;-81
2021/08/27 05:58:11;;;;;;;5.07;3.60;;;14.30;1.00;;;;;;6152418;23;20572;-81
2021/08/27 06:00:38;;;;;;;5.83;5.33;;;14.30;1.00;;;;;;6155234;23;20500;-81
2021/08/27 06:03:05;;;;;;;8.00;7.20;;;14.40;1.00;;;;;;6155440;23;20454;-86
2021/08/27 06:05:33;;;;;;;6.20;5.70;;;14.50;1.00;;;;;;6127872;23;20474;-81
2021/08/27 06:08:00;;;;;;;7.67;6.63;;;14.60;1.00;;;;;;6153628;23;20490;-82
2021/08/27 06:10:26;;;;;;;7.83;5.47;;;14.70;1.00;;;;;;6154649;23;20740;-82
2021/08/27 06:12:53;;;;;;;6.00;4.47;;;14.90;1.00;;;;;;6154481;23;20417;-82
2021/08/27 06:15:20;;;;;;;4.30;3.43;;;15.10;1.00;;;;;;6155600;23;20453;-82
2021/08/27 06:17:47;;;;;;;4.13;3.10;;;15.20;1.00;;;;;;6129041;23;20485;-82
2021/08/27 06:20:14;;;;;;;2.40;2.20;;;15.30;1.00;;;;;;6158445;23;20409;-81
2021/08/27 06:22:42;;;;;;;3.50;2.67;;;15.40;1.00;;;;;;6161464;23;20587;-83
2021/08/27 06:25:09;;;;;;;7.80;7.20;;;15.30;1.00;;;;;;6147675;23;20448;-83
2021/08/27 06:27:36;;;;;;;2.20;1.97;;;15.20;1.00;;;;;;6133314;23;20459;-81
2021/08/27 06:30:05;;;;;;;3.03;2.30;;;15.10;1.00;;;;;;6155074;23;20417;-82
2021/08/27 06:32:32;;;;;;;3.83;2.73;;;15.10;1.00;;;;;;6158268;23;20412;-81
2021/08/27 06:34:59;;;;;;;5.20;3.30;;;15.20;1.00;;;;;;6157971;23;20453;-82
2021/08/27 06:40:10;;;;;;;3.00;2.17;;;15.00;1.00;;;;;;6155838;23;20402;-82
2021/08/27 06:42:37;;;;;;;19.70;16.03;;;15.00;1.00;;;;;;6132834;23;20466;-82
2021/08/27 06:45:06;;;;;;;4.10;2.00;;;14.90;1.00;;;;;;6158697;23;20463;-82
2021/08/27 06:47:33;;;;;;;3.73;2.23;;;14.90;1.00;;;;;;6134028;23;20395;-81
2021/08/27 06:49:59;;;;;;;3.03;2.47;;;14.90;1.00;;;;;;6158578;23;20411;-82
2021/08/27 06:52:27;;;;;;;2.90;2.57;;;14.90;1.00;;;;;;6130484;23;20449;-82
2021/08/27 06:54:53;;;;;;;2.87;2.30;;;15.00;1.00;;;;;;6132653;23;20400;-83
2021/08/27 06:57:22;;;;;;;3.27;2.27;;;15.10;1.00;;;;;;6159574;23;20866;-84
2021/08/27 06:59:48;;;;;;;2.63;1.70;;;15.20;1.00;;;;;;6166079;23;20396;-84
2021/08/27 07:02:15;;;;;;;1.80;1.47;;;15.30;1.00;;;;;;6163097;23;20433;-82
2021/08/27 07:04:42;;;;;;;7.20;4.63;;;15.50;1.00;;;;;;6172413;23;20404;-83
2021/08/27 07:07:08;;;;;;;2.00;1.70;;;15.60;1.00;;;;;;6182029;23;20455;-80
2021/08/27 07:09:35;;;;;;;2.20;1.40;;;15.80;1.00;;;;;;6152546;23;20396;-81
2021/08/27 07:12:02;;;;;;;2.37;1.50;;;15.90;1.00;;;;;;6172705;23;20422;-81
2021/08/27 07:14:33;;;;;;;3.10;1.50;;;16.00;1.00;;;;;;6181878;23;20435;-82
2021/08/27 07:16:59;;;;;;;3.40;2.30;;;16.20;1.00;;;;;;6177965;23;20381;-82
2021/08/27 07:19:26;;;;;;;3.60;1.63;;;16.30;1.00;;;;;;6165356;23;20768;-83
2021/08/27 07:21:53;;;;;;;2.60;1.67;;;16.40;1.00;;;;;;6174460;23;20385;-83
2021/08/27 07:24:21;;;;;;;2.70;1.43;;;16.40;1.00;;;;;;6178546;23;20440;-84
2021/08/27 07:26:48;;;;;;;2.63;1.40;;;16.30;1.00;;;;;;6176598;23;20423;-84
2021/08/27 07:29:15;;;;;;;2.73;1.47;;;16.20;1.00;;;;;;6167579;23;20379;-83
2021/08/27 07:31:43;;;;;;;4.33;3.13;;;16.00;1.00;;;;;;6162714;23;20429;-83
2021/08/27 07:34:10;;;;;;;2.93;2.30;;;16.00;1.00;;;;;;6161434;23;20456;-83
2021/08/27 07:36:37;;;;;;;1.80;1.30;;;15.80;1.00;;;;;;6159186;23;20420;-81
2021/08/27 07:39:04;;;;;;;3.57;1.93;;;15.70;1.00;;;;;;6160455;23;20464;-83
2021/08/27 07:41:31;;;;;;;3.27;1.73;;;15.70;1.00;;;;;;6160416;23;20510;-82
2021/08/27 07:43:59;;;;;;;15.60;13.90;;;15.70;1.00;;;;;;6160658;23;20401;-82
2021/08/27 07:46:26;;;;;;;4.23;2.47;;;15.70;1.00;;;;;;6131953;23;20407;-82
2021/08/27 07:48:54;;;;;;;2.30;1.90;;;15.70;1.00;;;;;;6131919;23;20505;-81
2021/08/27 07:51:20;;;;;;;1.83;1.17;;;15.60;1.00;;;;;;6155402;23;20391;-82
2021/08/27 07:53:47;;;;;;;2.07;1.87;;;15.50;1.00;;;;;;6131399;23;20437;-82
2021/08/27 07:56:14;;;;;;;3.23;1.87;;;15.60;1.00;;;;;;6166566;23;20370;-79
2021/08/27 07:58:41;;;;;;;2.27;1.70;;;15.50;1.00;;;;;;6139631;23;20737;-81
2021/08/27 08:01:07;;;;;;;2.30;1.67;;;15.50;1.00;;;;;;6159327;23;20472;-82
2021/08/27 08:03:34;;;;;;;2.53;1.70;;;15.60;1.00;;;;;;6157452;23;20506;-82
2021/08/27 08:06:03;;;;;;;3.03;1.90;;;15.70;1.00;;;;;;6157330;23;20421;-81
2021/08/27 08:08:29;;;;;;;2.93;2.10;;;15.90;1.00;;;;;;6158629;23;20402;-82
2021/08/27 08:10:56;;;;;;;2.67;1.47;;;16.20;1.00;;;;;;6156191;23;20464;-83
2021/08/27 08:13:24;;;;;;;4.03;1.70;;;16.40;1.00;;;;;;6157684;23;20389;-83
2021/08/27 08:15:51;;;;;;;3.20;1.30;;;16.40;1.00;;;;;;6157503;23;20365;-82
2021/08/27 08:18:18;;;;;;;3.57;1.20;;;16.40;1.00;;;;;;6162777;23;20410;-81
2021/08/27 08:20:44;;;;;;;3.40;1.60;;;16.50;1.00;;;;;;6159781;23;20405;-82
2021/08/27 08:23:13;;;;;;;2.13;1.40;;;16.50;1.00;;;;;;6143640;23;20401;-84
2021/08/27 08:25:40;;;;;;;9.37;3.20;;;16.50;1.00;;;;;;6141204;23;20403;-83
2021/08/27 08:28:09;;;;;;;1.70;0.97;;;16.60;1.00;;;;;;6165989;23;20366;-80
2021/08/27 08:30:35;;;;;;;3.33;1.23;;;16.80;1.00;;;;;;6184088;23;20387;-83
2021/08/27 08:33:02;;;;;;;2.43;1.30;;;17.00;1.00;;;;;;6185289;23;20385;-83
2021/08/27 08:35:29;;;;;;;7.27;3.73;;;17.10;1.00;;;;;;6184328;23;20527;-84
2021/08/27 08:37:56;;;;;;;7.50;1.57;;;17.30;1.00;;;;;;6184170;23;20367;-85
2021/08/27 08:40:24;;;;;;;2.20;0.80;;;17.50;1.00;;;;;;6185415;23;20458;-82
2021/08/27 08:42:51;;;;;;;2.30;1.50;;;17.60;1.00;;;;;;6184762;23;20383;-83
2021/08/27 08:45:17;;;;;;;3.73;1.50;;;17.60;1.00;;;;;;6183251;23;20398;-83
2021/08/27 08:47:47;;;;;;;2.50;1.90;;;17.70;1.00;;;;;;6158785;23;20409;-81
2021/08/27 08:50:16;;;;;;;2.73;1.27;;;17.80;1.00;;;;;;6159432;23;20399;-82
2021/08/27 08:52:44;;;;;;;2.73;1.30;;;17.80;1.00;;;;;;6185742;23;20406;-83
2021/08/27 08:55:11;;;;;;;2.80;1.10;;;17.90;1.00;;;;;;6182921;23;20419;-84
2021/08/27 08:57:39;;;;;;;3.77;0.80;;;17.90;1.00;;;;;;6157239;23;20381;-84
2021/08/27 09:00:07;;;;;;;2.17;1.00;;;17.80;1.00;;;;;;6183611;23;20446;-84
2021/08/27 09:02:34;;;;;;;2.40;0.80;;;17.70;1.00;;;;;;6180447;23;20406;-85
2021/08/27 09:05:01;;;;;;;3.13;2.00;;;17.80;1.00;;;;;;6179795;23;20370;-84
2021/08/27 09:07:28;;;;;;;3.00;0.80;;;17.90;1.00;;;;;;6177448;23;20425;-83
2021/08/27 09:10:02;;;;;;;1.07;0.50;;;18.10;1.00;;;;;;6176319;23;20375;-84
2021/08/27 09:12:30;;;;;;;1.40;0.60;;;18.30;1.00;;;;;;6139012;23;20407;-83
2021/08/27 09:15:06;;;;;;;1.37;0.70;;;18.50;1.00;;;;;;6131993;23;20403;-83
2021/08/27 09:17:35;;;;;;;1.30;0.73;;;18.80;1.00;;;;;;6157608;23;20376;-82
2021/08/27 09:20:04;;;;;;;2.30;1.40;;;18.90;1.00;;;;;;6134782;23;20407;-83
2021/08/27 09:22:47;;;;;;;2.70;1.53;;;19.10;1.00;;;;;;6173841;23;20422;-82
2021/08/27 09:25:15;;;;;;;1.30;0.73;;;19.30;1.00;;;;;;6165611;23;20392;-83
2021/08/27 09:28:08;;;;;;;2.17;1.30;;;19.50;1.00;;;;;;6156281;23;20401;-83
2021/08/27 09:30:39;;;;;;;3.63;2.00;;;19.70;1.00;;;;;;6156868;23;20442;-82
2021/08/27 09:33:14;;;;;;;7.63;1.20;;;20.50;1.00;;;;;;6154025;23;20398;-81
2021/08/27 09:35:58;;;;;;;2.83;0.80;;;21.10;1.00;;;;;;6155439;23;20790;-82
2021/08/27 09:38:29;;;;;;;2.77;1.40;;;20.90;1.00;;;;;;6130674;23;20497;-82
2021/08/27 09:41:00;;;;;;;1.70;1.40;;;20.30;1.00;;;;;;6156053;23;20379;-84
2021/08/27 09:43:27;;;;;;;2.33;1.20;;;20.20;1.00;;;;;;6154579;23;20391;-82
2021/08/27 09:45:57;;;;;;;3.63;1.00;;;20.00;1.00;;;;;;6156641;23;20482;-82
2021/08/27 09:48:24;;;;;;;3.80;1.30;;;19.80;1.00;;;;;;6155068;23;20428;-82
2021/08/27 09:50:51;;;;;;;3.40;1.10;;;19.80;1.00;;;;;;6126770;23;20445;-82
2021/08/27 09:53:19;;;;;;;9.37;8.57;;;19.70;1.00;;;;;;6153320;23;20470;-81
2021/08/27 09:55:58;;;;;;;2.07;1.37;;;19.70;1.00;;;;;;6154296;23;20408;-82
2021/08/27 09:58:28;;;;;;;3.00;1.37;;;19.80;1.00;;;;;;6128234;23;20414;-83
2021/08/27 10:01:04;;;;;;;3.60;1.60;;;20.00;1.00;;;;;;6155313;23;20445;-83
2021/08/27 10:03:31;;;;;;;1.67;0.90;;;20.20;1.00;;;;;;6157123;23;20447;-82
2021/08/27 10:06:02;;;;;;;2.73;1.00;;;20.40;1.00;;;;;;6153028;23;20424;-83
2021/08/27 10:08:32;;;;;;;3.90;2.13;;;20.70;1.00;;;;;;6155405;23;20412;-83
2021/08/27 10:11:21;;;;;;;3.70;3.40;;;21.30;1.00;;;;;;6158174;23;20602;-83
2021/08/27 10:13:48;;;;;;;2.73;1.50;;;22.30;1.00;;;;;;6129301;23;20420;-83
2021/08/27 10:16:16;;;;;;;5.63;4.37;;;22.50;1.00;;;;;;6155429;23;20475;-82
2021/08/27 10:18:43;;;;;;;3.80;1.17;;;22.50;1.00;;;;;;6158655;23;20420;-82
2021/08/27 10:21:10;;;;;;;3.37;1.27;;;22.20;1.00;;;;;;6153599;23;20457;-82
2021/08/27 10:23:37;;;;;;;1.80;1.30;;;21.80;1.00;;;;;;6156153;23;20565;-82
2021/08/27 10:26:13;;;;;;;1.60;1.10;;;21.50;1.00;;;;;;6172949;23;20492;-81
2021/08/27 10:28:39;;;;;;;2.80;2.30;;;21.30;1.00;;;;;;6162937;23;20369;-84
2021/08/27 10:31:06;;;;;;;5.83;2.10;;;21.10;1.00;;;;;;6153952;23;20499;-84
2021/08/27 10:34:05;;;;;;;2.80;1.63;;;20.90;1.00;;;;;;6154653;23;20675;-82
2021/08/27 10:36:55;;;;;;;2.67;1.80;;;21.20;1.00;;;;;;6154091;23;20401;-83
2021/08/27 10:39:40;;;;;;;2.30;1.70;;;22.10;1.00;;;;;;6128648;23;20511;-82
2021/08/27 10:42:08;;;;;;;3.50;1.80;;;22.80;1.00;;;;;;6155870;23;20411;-82
2021/08/27 10:44:51;;;;;;;1.63;1.17;;;22.80;1.00;;;;;;6153001;23;20936;-82
2021/08/27 10:47:19;;;;;;;1.77;1.37;;;22.30;1.00;;;;;;6155276;23;21697;-82
2021/08/27 10:50:04;;;;;;;1.50;1.37;;;21.50;1.00;;;;;;6156384;23;20531;-82
2021/08/27 10:52:37;;;;;;;2.00;1.50;;;21.70;1.00;;;;;;6157547;23;20890;-82
2021/08/27 10:55:17;;;;;;;3.00;2.30;;;21.40;1.00;;;;;;6160651;23;20456;-82
2021/08/27 10:57:51;;;;;;;5.17;2.53;;;21.00;1.00;;;;;;6169854;23;20542;-80
2021/08/27 11:00:41;;;;;;;2.33;1.63;;;20.70;1.00;;;;;;6166296;23;20357;-83
2021/08/27 11:03:10;;;;;;;3.53;2.30;;;20.50;1.00;;;;;;6155371;23;20417;-82
2021/08/27 11:05:41;;;;;;;1.50;0.97;;;20.50;1.00;;;;;;6130670;23;20393;-82
2021/08/27 11:08:11;;;;;;;3.00;1.90;;;20.50;1.00;;;;;;6157490;23;20381;-82
2021/08/27 11:10:41;;;;;;;2.93;2.00;;;20.60;1.00;;;;;;6129696;23;20433;-82
2021/08/27 11:13:11;;;;;;;5.20;2.10;;;21.20;1.00;;;;;;6155309;23;20426;-82
2021/08/27 11:15:40;;;;;;;1.97;1.00;;;21.60;1.00;;;;;;6157266;23;20491;-84
2021/08/27 11:18:24;;;;;;;4.33;1.70;;;21.80;1.00;;;;;;6160687;23;20399;-82
2021/08/27 11:20:57;;;;;;;5.03;1.60;;;22.40;1.00;;;;;;6160929;23;20392;-81
2021/08/27 11:23:24;;;;;;;2.90;1.80;;;23.30;1.00;;;;;;6162517;23;21634;-82
2021/08/27 11:26:05;;;;;;;3.13;1.20;;;22.90;1.00;;;;;;6158418;23;20491;-82
2021/08/27 11:28:33;;;;;;;12.73;5.63;;;21.40;1.00;;;;;;6134194;23;20385;-82
2021/08/27 11:31:08;;;;;;;5.70;3.37;;;20.20;1.00;;;;;;6168151;23;20411;-81
2021/08/27 11:33:52;;;;;;;3.60;2.63;;;19.20;1.00;;;;;;6142285;23;20410;-82
2021/08/27 11:36:22;;;;;;;4.20;2.57;;;18.40;1.00;;;;;;6161161;23;21148;-81
2021/08/27 11:38:57;;;;;;;5.13;2.67;;;17.90;1.00;;;;;;6164277;23;20418;-83
2021/08/27 11:41:25;;;;;;;2.37;1.70;;;17.40;1.00;;;;;;6160015;23;20362;-80
2021/08/27 11:44:08;;;;;;;2.23;1.70;;;17.00;1.00;;;;;;6142146;23;20397;-81
2021/08/27 11:46:37;;;;;;;3.10;1.57;;;16.70;1.00;;;;;;6172214;23;20400;-81
2021/08/27 11:49:16;;;;;;;1.97;1.50;;;16.50;1.00;;;;;;6173025;23;20402;-80
2021/08/27 11:51:53;;;;;;;2.67;1.30;;;16.40;1.00;;;;;;6152871;23;20383;-83
2021/08/27 11:54:21;;;;;;;4.20;3.30;;;16.40;1.00;;;;;;6178371;23;20381;-81
2021/08/27 11:56:50;;;;;;;2.23;1.40;;;16.30;1.00;;;;;;6175165;23;20394;-82
2021/08/27 11:59:21;;;;;;;2.97;1.60;;;16.30;1.00;;;;;;6179678;23;20448;-82
2021/08/27 12:01:48;;;;;;;2.30;1.77;;;16.50;1.00;;;;;;6177204;23;20380;-81
2021/08/27 12:04:30;;;;;;;2.70;2.00;;;16.70;1.00;;;;;;6151525;23;20403;-82
2021/08/27 12:07:09;;;;;;;2.37;1.87;;;17.00;1.00;;;;;;6178626;23;20390;-81
2021/08/27 12:09:36;;;;;;;1.50;1.07;;;17.30;1.00;;;;;;6173900;23;20374;-82
2021/08/27 12:12:04;;;;;;;2.43;1.63;;;17.50;1.00;;;;;;6162936;23;20748;-85
2021/08/27 12:14:51;;;;;;;3.30;1.83;;;18.30;1.00;;;;;;6131946;23;20375;-86
2021/08/27 12:17:24;;;;;;;3.20;1.30;;;19.40;1.00;;;;;;6132319;23;20503;-86
2021/08/27 12:19:52;;;;;;;2.83;2.63;;;21.20;1.00;;;;;;6135375;23;20423;-84
2021/08/27 12:22:25;;;;;;;1.80;0.80;;;23.30;1.00;;;;;;6136974;23;20470;-84
2021/08/27 12:24:54;;;;;;;1.87;1.13;;;24.70;1.00;;;;;;6161745;23;20414;-84
2021/08/27 12:27:22;;;;;;;1.93;0.90;;;25.80;1.00;;;;;;6134237;23;20414;-85
2021/08/27 13:37:08;;;;;;;1.37;0.80;;;26.50;1.00;;;;;;6148267;22;20426;-82
2021/08/27 13:39:34;;;;;;;1.20;0.70;;;25.40;1.00;;;;;;6153070;23;20405;-83
2021/08/27 13:42:01;;;;;;;1.60;0.90;;;24.70;1.00;;;;;;6151081;23;20432;-83
2021/08/27 13:44:29;;;;;;;1.50;0.80;;;24.20;1.00;;;;;;6157718;23;20392;-81
2021/08/27 13:46:55;;;;;;;2.13;1.30;;;24.10;1.00;;;;;;6152813;23;20462;-83
2021/08/27 13:49:22;;;;;;;2.00;0.80;;;23.80;1.00;;;;;;6152629;23;20419;-82
2021/08/27 13:51:49;;;;;;;1.50;0.90;;;24.00;1.00;;;;;;6154014;23;20437;-83
2021/08/27 13:54:17;;;;;;;1.70;1.10;;;24.00;1.00;;;;;;6152966;23;20364;-83
2021/08/27 13:56:44;;;;;;;1.83;1.30;;;23.80;1.00;;;;;;6151218;23;20408;-81
2021/08/27 13:59:11;;;;;;;1.43;0.80;;;23.40;1.00;;;;;;6152255;23;20405;-83
2021/08/27 14:01:37;;;;;;;3.87;2.40;;;24.50;1.00;;;;;;6152495;23;20432;-82
2021/08/27 14:04:04;;;;;;;1.57;1.03;;;26.90;1.00;;;;;;6154225;23;20363;-83
2021/08/27 14:06:32;;;;;;;1.30;0.60;;;27.80;1.00;;;;;;6157293;23;21268;-82
2021/08/27 14:08:59;;;;;;;1.80;1.03;;;28.10;1.00;;;;;;6152498;23;20580;-81
2021/08/27 14:11:27;;;;;;;3.27;0.93;;;27.50;1.00;;;;;;6153326;23;20414;-83
2021/08/27 14:13:54;;;;;;;3.33;2.13;;;27.00;1.00;;;;;;6157854;23;20994;-82
2021/08/27 14:16:24;;;;;;;3.27;0.90;;;26.70;1.00;;;;;;6154882;23;20395;-83
2021/08/27 14:18:51;;;;;;;3.90;1.23;;;27.80;1.00;;;;;;6152139;23;21484;-87
2021/08/27 14:24:37;;;;;;;1.70;1.20;;;28.20;1.00;;;;;;6125012;23;20384;-87